createdAt,value
2018-12-29T00:02:21.287Z,28.20
2018-12-29T00:05:04.394Z,28.60
2018-12-29T00:07:52.307Z,28.00
2018-12-29T00:10:33.407Z,27.33
2018-12-29T00:13:21.522Z,27.13
2018-12-29T00:16:03.078Z,26.50
2018-12-29T00:18:50.997Z,26.37
2018-12-29T00:21:32.191Z,25.40
2018-12-29T00:24:20.778Z,24.97
2018-12-29T00:27:01.451Z,27.00
2018-12-29T00:29:49.433Z,26.40
2018-12-29T00:32:30.550Z,26.43
2018-12-29T00:35:18.616Z,25.90
2018-12-29T00:37:59.297Z,26.30
2018-12-29T00:40:47.520Z,27.70
2018-12-29T00:43:26.398Z,27.63
2018-12-29T00:46:14.366Z,26.97
2018-12-29T00:48:54.996Z,26.07
2018-12-29T00:51:42.910Z,25.53
2018-12-29T00:54:26.516Z,26.30
2018-12-29T00:57:14.856Z,24.90
2018-12-29T00:59:55.955Z,23.43
2018-12-29T01:02:43.964Z,25.30
2018-12-29T01:05:26.714Z,24.60
2018-12-29T01:08:14.690Z,24.80
2018-12-29T01:10:55.756Z,23.80
2018-12-29T01:13:43.568Z,24.83
2018-12-29T01:16:25.823Z,25.50
2018-12-29T01:19:13.772Z,26.03
2018-12-29T01:21:56.834Z,25.03
2018-12-29T01:24:44.730Z,23.87
2018-12-29T01:27:27.376Z,24.20
2018-12-29T01:30:15.386Z,24.23
2018-12-29T01:32:56.371Z,23.70
2018-12-29T01:35:44.374Z,23.30
2018-12-29T01:38:25.677Z,24.40
2018-12-29T01:41:13.971Z,23.13
2018-12-29T01:43:56.938Z,23.03
2018-12-29T01:46:45.048Z,23.50
2018-12-29T01:49:26.009Z,24.80
2018-12-29T01:52:14.061Z,23.43
2018-12-29T01:54:56.572Z,23.80
2018-12-29T01:57:44.466Z,24.17
2018-12-29T02:00:25.201Z,23.00
2018-12-29T02:03:13.230Z,23.43
2018-12-29T02:05:54.309Z,23.37
2018-12-29T02:08:42.210Z,24.83
2018-12-29T02:11:23.377Z,23.13
2018-12-29T02:14:11.361Z,22.80
2018-12-29T02:16:52.305Z,23.07
2018-12-29T02:19:40.213Z,22.73
2018-12-29T02:22:21.107Z,23.87
2018-12-29T02:25:09.168Z,23.30
2018-12-29T02:27:50.035Z,24.27
2018-12-29T02:30:38.054Z,24.60
2018-12-29T02:33:18.902Z,22.77
2018-12-29T02:36:06.869Z,22.50
2018-12-29T02:38:45.939Z,23.90
2018-12-29T02:41:33.970Z,23.43
2018-12-29T02:44:12.878Z,23.47
2018-12-29T02:47:00.835Z,23.60
2018-12-29T02:49:41.589Z,23.13
2018-12-29T02:52:29.409Z,23.67
2018-12-29T02:55:10.407Z,23.07
2018-12-29T02:57:58.393Z,23.47
2018-12-29T03:00:39.560Z,23.93
2018-12-29T03:06:34.868Z,23.10
2018-12-29T03:09:22.858Z,23.67
2018-12-29T03:12:03.635Z,23.70
2018-12-29T03:14:51.647Z,23.53
2018-12-29T03:17:32.576Z,22.73
2018-12-29T03:20:20.699Z,24.03
2018-12-29T03:23:03.686Z,23.43
2018-12-29T03:25:51.685Z,23.10
2018-12-29T03:28:32.632Z,23.97
2018-12-29T03:31:20.584Z,24.77
2018-12-29T03:34:01.698Z,23.40
2018-12-29T03:36:49.741Z,23.10
2018-12-29T03:39:30.675Z,24.83
2018-12-29T03:42:18.865Z,24.47
2018-12-29T03:45:02.058Z,25.03
2018-12-29T03:47:49.966Z,25.33
2018-12-29T03:50:31.074Z,24.57
2018-12-29T03:53:19.483Z,25.63
2018-12-29T03:56:00.029Z,26.33
2018-12-29T03:58:48.740Z,25.60
2018-12-29T04:01:29.297Z,24.23
2018-12-29T04:04:17.304Z,23.83
2018-12-29T04:06:58.789Z,25.23
2018-12-29T04:09:46.706Z,22.53
2018-12-29T04:12:28.908Z,25.43
2018-12-29T04:15:17.078Z,25.87
2018-12-29T04:17:57.528Z,25.73
2018-12-29T04:20:45.631Z,26.80
2018-12-29T04:23:26.646Z,26.63
2018-12-29T04:26:14.954Z,28.27
2018-12-29T04:28:55.532Z,28.43
2018-12-29T04:31:43.534Z,25.23
2018-12-29T04:34:24.853Z,27.37
2018-12-29T04:37:12.933Z,26.00
2018-12-29T04:39:53.711Z,27.57
2018-12-29T04:42:41.767Z,26.43
2018-12-29T04:45:24.793Z,24.93
2018-12-29T04:48:13.203Z,26.67
2018-12-29T04:50:54.101Z,27.47
2018-12-29T04:53:41.975Z,27.90
2018-12-29T04:56:23.501Z,26.60
2018-12-29T04:59:11.743Z,27.30
2018-12-29T05:01:52.623Z,27.77
2018-12-29T05:04:40.715Z,27.73
2018-12-29T05:07:22.195Z,27.53
2018-12-29T05:10:10.097Z,27.47
2018-12-29T05:12:51.233Z,27.57
2018-12-29T05:15:39.373Z,26.53
2018-12-29T05:18:20.334Z,27.23
2018-12-29T05:21:08.340Z,28.23
2018-12-29T05:23:49.508Z,26.43
2018-12-29T05:26:37.405Z,26.43
2018-12-29T05:29:25.570Z,26.77
2018-12-29T05:32:13.512Z,26.57
2018-12-29T05:34:54.691Z,27.33
2018-12-29T05:37:42.717Z,26.27
2018-12-29T05:40:23.829Z,27.27
2018-12-29T05:43:11.778Z,26.63
2018-12-29T05:45:52.941Z,25.53
2018-12-29T05:48:40.897Z,26.17
2018-12-29T05:51:22.039Z,25.23
2018-12-29T05:54:10.026Z,26.30
2018-12-29T05:56:51.270Z,26.00
2018-12-29T05:59:39.536Z,26.90
2018-12-29T06:02:20.577Z,26.83
2018-12-29T06:05:08.666Z,29.37
2018-12-29T06:07:51.506Z,28.40
2018-12-29T06:10:39.418Z,29.37
2018-12-29T06:13:20.711Z,30.33
2018-12-29T06:16:08.605Z,29.70
2018-12-29T06:18:49.918Z,30.07
2018-12-29T06:21:37.837Z,32.57
2018-12-29T06:24:18.722Z,32.03
2018-12-29T06:27:06.896Z,32.70
2018-12-29T06:29:47.850Z,33.33
2018-12-29T06:32:35.843Z,31.63
2018-12-29T06:35:18.410Z,31.53
2018-12-29T06:38:06.710Z,29.57
2018-12-29T06:40:47.520Z,30.53
2018-12-29T06:43:35.433Z,29.10
2018-12-29T06:46:16.672Z,29.30
2018-12-29T06:49:04.746Z,28.80
2018-12-29T06:51:45.690Z,28.17
2018-12-29T06:54:33.838Z,27.43
2018-12-29T06:57:14.901Z,29.27
2018-12-29T07:00:03.638Z,28.73
2018-12-29T07:02:44.563Z,27.33
2018-12-29T07:05:32.518Z,26.30
2018-12-29T07:08:13.877Z,29.57
2018-12-29T07:11:01.840Z,27.70
2018-12-29T07:13:44.962Z,26.73
2018-12-29T07:16:33.258Z,29.17
2018-12-29T07:19:14.710Z,27.83
2018-12-29T07:22:02.647Z,28.00
2018-12-29T07:24:43.707Z,28.27
2018-12-29T07:27:31.742Z,28.13
2018-12-29T07:30:12.810Z,28.63
2018-12-29T07:33:00.782Z,28.40
2018-12-29T07:35:42.071Z,31.30
2018-12-29T07:38:31.070Z,28.47
2018-12-29T07:41:12.503Z,27.97
2018-12-29T07:44:00.596Z,27.83
2018-12-29T07:46:49.408Z,27.10
2018-12-29T07:49:33.581Z,29.53
2018-12-29T07:52:14.395Z,27.97
2018-12-29T07:55:02.429Z,29.17
2018-12-29T07:57:43.385Z,30.17
2018-12-29T08:00:31.396Z,28.33
2018-12-29T08:03:14.425Z,28.37
2018-12-29T08:05:55.911Z,29.73
2018-12-29T08:08:37.265Z,31.87
2018-12-29T08:11:18.350Z,30.97
2018-12-29T08:14:06.272Z,30.83
2018-12-29T08:16:47.336Z,32.10
2018-12-29T08:19:35.282Z,30.67
2018-12-29T08:22:14.307Z,32.87
2018-12-29T08:25:02.212Z,33.50
2018-12-29T08:27:42.690Z,32.17
2018-12-29T08:30:30.650Z,31.87
2018-12-29T08:33:13.057Z,32.70
2018-12-29T08:36:02.191Z,31.20
2018-12-29T08:38:45.012Z,31.17
2018-12-29T08:41:32.964Z,33.43
2018-12-29T08:44:12.061Z,32.33
2018-12-29T08:47:04.501Z,32.83
2018-12-29T08:49:48.661Z,34.33
2018-12-29T08:52:36.690Z,30.77
2018-12-29T08:55:17.399Z,33.13
2018-12-29T08:58:05.352Z,31.73
2018-12-29T09:00:46.524Z,32.33
2018-12-29T09:03:34.546Z,32.90
2018-12-29T09:06:15.419Z,32.23
2018-12-29T09:09:24.666Z,30.50
2018-12-29T09:12:05.619Z,30.13
2018-12-29T09:14:53.443Z,31.00
2018-12-29T09:17:36.013Z,31.13
2018-12-29T09:20:25.330Z,30.67
2018-12-29T09:23:08.355Z,30.50
2018-12-29T09:25:57.372Z,29.13
2018-12-29T09:28:39.079Z,28.37
2018-12-29T09:31:28.489Z,28.20
2018-12-29T09:34:09.897Z,29.83
2018-12-29T09:36:59.130Z,28.17
2018-12-29T09:39:39.961Z,28.40
2018-12-29T09:42:29.105Z,26.13
2018-12-29T09:45:11.567Z,28.40
2018-12-29T09:47:59.628Z,24.47
2018-12-29T09:50:40.812Z,24.60
2018-12-29T09:53:28.869Z,25.50
2018-12-29T09:56:10.232Z,24.63
2018-12-29T09:58:58.246Z,24.07
2018-12-29T10:01:39.313Z,25.37
2018-12-29T10:04:27.177Z,24.93
2018-12-29T10:07:08.260Z,24.67
2018-12-29T10:09:56.287Z,23.60
2018-12-29T10:12:37.535Z,23.20
2018-12-29T10:15:25.382Z,23.57
2018-12-29T10:18:05.920Z,23.60
2018-12-29T10:20:53.875Z,22.40
2018-12-29T10:23:36.351Z,23.07
2018-12-29T10:26:24.316Z,23.27
2018-12-29T10:29:05.605Z,22.97
2018-12-29T10:31:34.232Z,22.03
2018-12-29T10:34:15.632Z,23.47
2018-12-29T10:36:44.190Z,22.33
2018-12-29T10:39:24.884Z,23.17
2018-12-29T10:42:12.890Z,23.57
2018-12-29T10:44:54.050Z,22.93
2018-12-29T10:47:41.822Z,23.33
2018-12-29T10:50:23.224Z,23.37
2018-12-29T10:53:11.187Z,23.17
2018-12-29T10:55:51.730Z,23.63
2018-12-29T10:58:39.767Z,23.97
2018-12-29T11:01:08.430Z,25.20
2018-12-29T11:03:56.522Z,24.43
2018-12-29T11:06:37.300Z,26.53
2018-12-29T11:09:25.676Z,24.90
2018-12-29T11:12:06.483Z,25.83
2018-12-29T11:14:54.395Z,26.10
2018-12-29T11:17:42.455Z,26.30
2018-12-29T11:20:25.736Z,26.07
2018-12-29T11:23:07.032Z,27.67
2018-12-29T11:25:54.964Z,26.97
2018-12-29T11:28:36.003Z,27.87
2018-12-29T11:31:23.942Z,28.20
2018-12-29T11:33:52.825Z,27.10
2018-12-29T11:36:42.533Z,29.03
2018-12-29T11:39:23.219Z,25.97
2018-12-29T11:42:11.043Z,27.13
2018-12-29T11:44:51.783Z,27.13
2018-12-29T11:47:39.887Z,25.17
2018-12-29T11:50:20.816Z,25.40
2018-12-29T11:53:08.946Z,25.47
2018-12-29T11:55:50.323Z,26.37
2018-12-29T11:58:38.358Z,26.23
2018-12-29T12:01:19.720Z,25.30
2018-12-29T12:03:48.161Z,27.53
2018-12-29T12:06:30.778Z,26.53
2018-12-29T12:09:11.958Z,26.70
2018-12-29T12:11:52.884Z,24.97
2018-12-29T12:14:40.834Z,26.60
2018-12-29T12:17:22.341Z,26.20
2018-12-29T12:20:10.354Z,24.57
2018-12-29T12:22:52.636Z,25.87
2018-12-29T12:25:40.568Z,28.47
2018-12-29T12:28:21.818Z,26.20
2018-12-29T12:31:09.722Z,25.60
2018-12-29T12:33:38.333Z,28.27
2018-12-29T12:36:28.302Z,24.90
2018-12-29T12:39:09.564Z,26.23
2018-12-29T12:41:57.771Z,27.90
2018-12-29T12:44:38.659Z,26.33
2018-12-29T12:47:26.910Z,26.03
2018-12-29T12:50:07.711Z,27.67
2018-12-29T12:52:55.895Z,25.47
2018-12-29T12:55:26.264Z,24.50
2018-12-29T12:58:14.196Z,25.17
2018-12-29T13:00:55.026Z,26.83
2018-12-29T13:03:43.359Z,26.40
2018-12-29T13:06:24.390Z,27.40
2018-12-29T13:09:05.874Z,25.93
2018-12-29T13:11:47.174Z,25.20
2018-12-29T13:14:35.202Z,24.90
2018-12-29T13:17:37.576Z,25.00
2018-12-29T13:20:26.059Z,26.43
2018-12-29T13:23:06.636Z,25.33
2018-12-29T13:25:54.757Z,27.73
2018-12-29T13:28:35.587Z,25.40
2018-12-29T13:31:23.512Z,25.40
2018-12-29T13:34:04.852Z,23.97
2018-12-29T13:36:52.863Z,26.03
2018-12-29T13:39:33.907Z,26.43
2018-12-29T13:42:21.862Z,23.50
2018-12-29T13:45:02.947Z,25.03
2018-12-29T13:47:50.946Z,24.43
2018-12-29T13:50:31.662Z,24.37
2018-12-29T13:53:19.843Z,25.17
2018-12-29T13:56:00.815Z,26.43
2018-12-29T13:58:49.026Z,25.63
2018-12-29T14:01:30.198Z,25.37
2018-12-29T14:04:18.325Z,25.47
2018-12-29T14:06:59.289Z,25.87
2018-12-29T14:09:47.362Z,25.03
2018-12-29T14:12:28.478Z,24.90
2018-12-29T14:15:16.463Z,26.87
2018-12-29T14:18:18.852Z,19.57
2018-12-29T14:21:07.406Z,27.93
2018-12-29T14:23:48.615Z,28.03
2018-12-29T14:26:36.704Z,27.73
2018-12-29T14:29:17.527Z,27.20
2018-12-29T14:32:05.706Z,25.57
2018-12-29T14:34:46.569Z,26.90
2018-12-29T14:37:34.572Z,28.67
2018-12-29T14:40:15.837Z,29.27
2018-12-29T14:43:03.889Z,28.57
2018-12-29T14:45:45.120Z,28.20
2018-12-29T14:48:36.093Z,29.33
2018-12-29T14:51:36.300Z,27.27
2018-12-29T14:54:24.242Z,28.43
2018-12-29T14:57:05.291Z,26.70
2018-12-29T14:59:53.730Z,25.73
2018-12-29T15:02:34.682Z,25.97
2018-12-29T15:05:22.688Z,27.03
2018-12-29T15:08:03.877Z,26.83
2018-12-29T15:10:51.772Z,25.40
2018-12-29T15:13:53.937Z,26.27
2018-12-29T15:16:42.085Z,24.67
2018-12-29T15:19:22.854Z,22.47
2018-12-29T15:22:11.149Z,24.47
2018-12-29T15:24:52.331Z,25.07
2018-12-29T15:27:40.322Z,22.77
2018-12-29T15:30:21.829Z,22.80
2018-12-29T15:33:10.106Z,23.90
2018-12-29T15:35:52.483Z,23.67
2018-12-29T15:38:40.807Z,23.63
2018-12-29T15:41:21.655Z,22.33
2018-12-29T15:44:10.067Z,22.30
2018-12-29T15:46:50.804Z,20.37
2018-12-29T15:49:38.894Z,21.40
2018-12-29T15:52:20.486Z,21.17
2018-12-29T15:55:08.682Z,21.10
2018-12-29T15:57:49.064Z,21.40
2018-12-29T16:00:37.457Z,20.90
2018-12-29T16:03:40.346Z,19.97
2018-12-29T16:06:28.299Z,18.43
2018-12-29T16:09:09.336Z,15.67
2018-12-29T16:11:57.596Z,17.33
2018-12-29T16:14:38.512Z,16.77
2018-12-29T16:17:26.502Z,16.13
2018-12-29T16:20:28.699Z,15.77
2018-12-29T16:23:17.169Z,16.53
2018-12-29T16:26:19.963Z,14.33
2018-12-29T16:29:08.393Z,15.43
2018-12-29T16:31:47.398Z,14.53
2018-12-29T16:34:35.523Z,14.33
2018-12-29T16:37:16.818Z,13.63
2018-12-29T16:40:04.883Z,13.67
2018-12-29T16:43:07.648Z,13.83
2018-12-29T16:45:55.571Z,11.23
2018-12-29T16:48:36.586Z,14.20
2018-12-29T16:51:24.759Z,12.20
2018-12-29T16:54:07.730Z,13.40
2018-12-29T16:56:56.139Z,13.50
2018-12-29T16:59:56.639Z,14.03
2018-12-29T17:02:44.699Z,14.33
2018-12-29T17:05:47.251Z,15.47
2018-12-29T17:08:28.623Z,14.87
2018-12-29T17:11:09.513Z,15.80
2018-12-29T17:13:57.557Z,15.37
2018-12-29T17:16:38.834Z,16.37
2018-12-29T17:19:26.761Z,16.83
2018-12-29T17:22:07.782Z,18.00
2018-12-29T17:24:48.633Z,17.50
2018-12-29T17:27:29.846Z,17.73
2018-12-29T17:30:17.946Z,18.07
2018-12-29T17:33:20.175Z,18.53
2018-12-29T17:36:08.238Z,18.60
2018-12-29T17:38:49.029Z,20.00
2018-12-29T17:41:37.123Z,19.83
2018-12-29T17:44:18.219Z,19.43
2018-12-29T17:47:06.059Z,21.67
2018-12-29T17:49:46.961Z,23.07
2018-12-29T17:52:34.913Z,21.57
2018-12-29T17:55:37.085Z,22.57
2018-12-29T17:58:25.210Z,21.87
2018-12-29T18:01:06.354Z,21.13
2018-12-29T18:03:54.387Z,21.97
2018-12-29T18:06:35.474Z,18.70
2018-12-29T18:09:16.466Z,20.10
2018-12-29T18:11:57.581Z,17.33
2018-12-29T18:14:45.942Z,19.13
2018-12-29T18:17:26.650Z,16.30
2018-12-29T18:20:14.917Z,16.97
2018-12-29T18:22:56.039Z,16.90
2018-12-29T18:25:43.972Z,14.80
2018-12-29T18:28:27.059Z,15.23
2018-12-29T18:31:15.003Z,14.07
2018-12-29T18:33:56.119Z,14.70
2018-12-29T18:36:44.378Z,13.77
2018-12-29T18:39:25.356Z,13.13
2018-12-29T18:42:13.300Z,11.53
2018-12-29T18:44:54.525Z,13.73
2018-12-29T18:47:42.432Z,9.60
2018-12-29T18:50:23.810Z,9.30
2018-12-29T18:53:11.734Z,7.40
2018-12-29T18:55:54.812Z,6.93
2018-12-29T18:58:42.774Z,6.10
2018-12-29T19:01:23.961Z,4.77
2018-12-29T19:04:11.934Z,4.60
2018-12-29T19:06:53.039Z,3.30
2018-12-29T19:09:34.021Z,3.03
2018-12-29T19:12:15.111Z,2.47
2018-12-29T19:15:03.423Z,1.97
2018-12-29T19:17:52.281Z,2.87
2018-12-29T19:20:40.691Z,2.23
2018-12-29T19:23:43.388Z,4.30
2018-12-29T19:26:31.734Z,2.53
2018-12-29T19:29:32.298Z,2.80
2018-12-29T19:32:20.335Z,1.67
2018-12-29T19:35:23.096Z,2.30
2018-12-29T19:38:11.303Z,2.10
2018-12-29T19:41:14.184Z,2.40
2018-12-29T19:44:02.675Z,2.73
2018-12-29T19:47:05.324Z,3.30
2018-12-29T19:49:53.795Z,2.00
2018-12-29T19:52:56.361Z,2.80
2018-12-29T19:55:44.619Z,2.20
2018-12-29T19:58:26.047Z,2.40
2018-12-29T20:01:13.973Z,0.93
2018-12-29T20:03:55.120Z,1.60
2018-12-29T20:06:43.187Z,1.53
2018-12-29T20:09:24.167Z,1.80
2018-12-29T20:12:12.066Z,2.30
2018-12-29T20:15:12.436Z,1.60
2018-12-29T20:18:00.500Z,1.77
2018-12-29T20:20:41.434Z,2.13
2018-12-29T20:23:29.456Z,1.80
2018-12-29T20:26:10.799Z,1.70
2018-12-29T20:28:58.924Z,1.87
2018-12-29T20:31:39.692Z,2.83
2018-12-29T20:34:28.027Z,2.37
2018-12-29T20:37:08.965Z,2.07
2018-12-29T20:39:56.922Z,2.23
2018-12-29T20:42:59.384Z,2.83
2018-12-29T20:45:47.274Z,2.40
2018-12-29T20:48:28.236Z,1.90
2018-12-29T20:51:16.333Z,1.33
2018-12-29T20:53:57.370Z,1.60
2018-12-29T20:56:45.499Z,1.73
2018-12-29T20:59:26.702Z,1.17
2018-12-29T21:02:14.675Z,1.50
2018-12-29T21:04:55.631Z,1.70
2018-12-29T21:07:43.785Z,1.73
2018-12-29T21:10:24.765Z,1.30
2018-12-29T21:13:12.698Z,1.30
2018-12-29T21:15:54.022Z,1.50
2018-12-29T21:18:41.924Z,1.30
2018-12-29T21:21:22.797Z,1.40
2018-12-29T21:24:12.301Z,1.80
2018-12-29T21:27:13.008Z,1.60
2018-12-29T21:30:01.098Z,1.90
2018-12-29T21:33:03.119Z,1.80
2018-12-29T21:35:51.184Z,2.20
2018-12-29T21:38:32.506Z,1.93
2018-12-29T21:41:20.509Z,1.70
2018-12-29T21:44:22.453Z,2.00
2018-12-29T21:47:10.522Z,2.00
2018-12-29T21:49:51.575Z,2.33
2018-12-29T21:52:39.438Z,2.90
2018-12-29T21:55:20.624Z,2.93
2018-12-29T21:58:08.699Z,2.90
2018-12-29T22:00:49.785Z,2.90
2018-12-29T22:03:37.769Z,2.33
2018-12-29T22:06:18.995Z,2.40
2018-12-29T22:09:00.078Z,2.20
2018-12-29T22:11:40.949Z,2.30
2018-12-29T22:14:21.810Z,2.10
2018-12-29T22:17:09.765Z,2.00
2018-12-29T22:19:50.889Z,1.70
2018-12-29T22:22:38.960Z,1.80
2018-12-29T22:25:19.873Z,2.37
2018-12-29T22:28:07.726Z,2.00
2018-12-29T22:30:48.877Z,2.20
2018-12-29T22:33:37.070Z,1.63
2018-12-29T22:36:27.128Z,1.73
2018-12-29T22:39:15.346Z,1.33
2018-12-29T22:42:04.243Z,1.60
2018-12-29T22:44:52.301Z,2.40
2018-12-29T22:47:33.204Z,1.10
2018-12-29T22:50:21.286Z,1.27
2018-12-29T22:53:02.722Z,2.60
2018-12-29T22:55:50.949Z,1.57
2018-12-29T22:58:31.845Z,1.33
2018-12-29T23:01:00.678Z,1.47
2018-12-29T23:04:03.125Z,2.13
2018-12-29T23:06:51.169Z,1.20
2018-12-29T23:09:34.342Z,1.60
2018-12-29T23:12:22.213Z,1.73
2018-12-29T23:15:03.585Z,1.50
2018-12-29T23:17:51.742Z,1.87
2018-12-29T23:20:32.976Z,1.90
2018-12-29T23:23:20.798Z,1.87
2018-12-29T23:26:23.178Z,1.47
2018-12-29T23:29:11.095Z,2.63
2018-12-29T23:31:52.189Z,1.73
2018-12-29T23:34:40.203Z,3.77
2018-12-29T23:37:22.805Z,1.83
2018-12-29T23:40:11.030Z,2.20
2018-12-29T23:42:52.053Z,2.10
2018-12-29T23:45:40.321Z,1.80
2018-12-29T23:48:21.747Z,2.30
2018-12-29T23:51:09.688Z,1.23
2018-12-29T23:53:52.044Z,0.70
2018-12-29T23:56:40.312Z,0.60
2018-12-29T23:59:21.091Z,0.90
